createdAt,value
2022-11-25T00:01:24.077Z,33.20
2022-11-25T00:03:51.477Z,29.73
2022-11-25T00:06:19.415Z,31.77
2022-11-25T00:08:48.030Z,36.73
2022-11-25T00:11:15.531Z,40.37
2022-11-25T00:13:43.535Z,32.00
2022-11-25T00:16:12.641Z,35.63
2022-11-25T00:18:39.936Z,33.47
2022-11-25T00:21:08.957Z,38.90
2022-11-25T00:23:36.602Z,31.63
2022-11-25T00:26:14.527Z,31.80
2022-11-25T00:28:43.220Z,35.70
2022-11-25T00:31:13.281Z,32.80
2022-11-25T00:33:40.240Z,38.13
2022-11-25T00:36:12.958Z,36.07
2022-11-25T00:38:39.400Z,34.00
2022-11-25T00:41:24.355Z,33.97
2022-11-25T00:44:09.145Z,36.00
2022-11-25T00:46:35.566Z,37.03
2022-11-25T00:49:02.056Z,35.97
2022-11-25T00:51:28.474Z,31.20
2022-11-25T00:53:58.938Z,33.47
2022-11-25T00:56:25.962Z,37.47
2022-11-25T00:58:53.270Z,35.00
2022-11-25T01:01:20.068Z,42.73
2022-11-25T01:03:49.456Z,32.97
2022-11-25T01:06:15.989Z,34.67
2022-11-25T01:08:42.493Z,34.37
2022-11-25T01:11:12.248Z,32.80
2022-11-25T01:13:38.787Z,36.63
2022-11-25T01:16:07.182Z,31.73
2022-11-25T01:18:34.651Z,36.77
2022-11-25T01:21:09.129Z,37.53
2022-11-25T01:23:36.004Z,34.80
2022-11-25T01:26:08.217Z,33.07
2022-11-25T01:28:35.448Z,37.43
2022-11-25T01:31:04.936Z,40.23
2022-11-25T01:33:32.731Z,32.63
2022-11-25T01:36:03.940Z,33.50
2022-11-25T01:38:31.604Z,31.03
2022-11-25T01:40:58.261Z,33.97
2022-11-25T01:43:25.900Z,35.53
2022-11-25T01:45:53.949Z,32.70
2022-11-25T01:48:33.812Z,32.50
2022-11-25T01:51:00.713Z,34.47
2022-11-25T01:53:27.229Z,33.57
2022-11-25T01:55:58.767Z,30.17
2022-11-25T01:58:33.505Z,38.13
2022-11-25T02:01:00.099Z,35.90
2022-11-25T02:03:35.029Z,36.50
2022-11-25T02:06:24.750Z,39.97
2022-11-25T02:08:56.122Z,38.63
2022-11-25T02:11:26.574Z,37.93
2022-11-25T02:13:53.868Z,33.10
2022-11-25T02:16:20.416Z,31.57
2022-11-25T02:18:46.882Z,34.33
2022-11-25T02:21:18.057Z,32.73
2022-11-25T02:24:09.365Z,31.83
2022-11-25T02:26:35.828Z,36.10
2022-11-25T02:29:02.405Z,35.17
2022-11-25T02:31:28.971Z,34.30
2022-11-25T02:33:55.593Z,35.37
2022-11-25T02:36:23.281Z,34.77
2022-11-25T02:39:01.633Z,34.33
2022-11-25T02:41:43.680Z,33.40
2022-11-25T02:44:10.174Z,32.80
2022-11-25T02:46:36.801Z,33.33
2022-11-25T02:49:11.138Z,34.93
2022-11-25T02:51:40.091Z,37.70
2022-11-25T02:54:07.177Z,36.73
2022-11-25T02:56:35.533Z,29.63
2022-11-25T02:59:02.637Z,34.00
2022-11-25T03:01:31.507Z,32.37
2022-11-25T03:03:58.622Z,35.17
2022-11-25T03:06:25.067Z,40.37
2022-11-25T03:08:51.473Z,37.50
2022-11-25T03:11:17.980Z,35.40
2022-11-25T03:13:44.524Z,37.57
2022-11-25T03:16:11.257Z,30.67
2022-11-25T03:18:37.895Z,33.13
2022-11-25T03:21:04.485Z,36.17
2022-11-25T03:23:30.956Z,34.87
2022-11-25T03:25:57.388Z,42.70
2022-11-25T03:28:23.925Z,39.80
2022-11-25T03:30:50.461Z,36.50
2022-11-25T03:33:16.993Z,38.60
2022-11-25T03:35:43.401Z,33.63
2022-11-25T03:38:09.840Z,44.30
2022-11-25T03:40:36.360Z,37.53
2022-11-25T03:43:02.917Z,37.43
2022-11-25T03:45:29.526Z,36.30
2022-11-25T03:47:56.085Z,31.33
2022-11-25T03:50:22.526Z,35.43
2022-11-25T03:52:49.136Z,33.80
2022-11-25T03:55:15.584Z,33.90
2022-11-25T03:57:42.175Z,44.23
2022-11-25T04:00:11.478Z,35.30
2022-11-25T04:02:37.960Z,31.23
2022-11-25T04:05:05.590Z,35.70
2022-11-25T04:07:32.541Z,36.97
2022-11-25T04:09:59.129Z,32.77
2022-11-25T04:12:43.927Z,29.97
2022-11-25T04:15:10.597Z,34.20
2022-11-25T04:17:37.101Z,36.17
2022-11-25T04:20:04.261Z,30.47
2022-11-25T04:22:30.737Z,36.33
2022-11-25T04:24:57.260Z,28.73
2022-11-25T04:27:23.821Z,28.93
2022-11-25T04:29:50.400Z,27.57
2022-11-25T04:32:16.898Z,30.27
2022-11-25T04:34:43.372Z,27.23
2022-11-25T04:37:09.815Z,28.27
2022-11-25T04:39:36.517Z,27.00
2022-11-25T04:42:21.560Z,24.90
2022-11-25T04:45:07.332Z,31.93
2022-11-25T04:47:34.506Z,30.13
2022-11-25T04:50:01.155Z,29.03
2022-11-25T04:52:27.700Z,32.27
2022-11-25T04:54:54.294Z,21.77
2022-11-25T04:57:20.888Z,30.90
2022-11-25T04:59:47.347Z,20.37
2022-11-25T05:02:25.368Z,25.77
2022-11-25T05:04:54.694Z,25.23
2022-11-25T05:07:23.821Z,26.20
2022-11-25T05:09:50.602Z,25.43
2022-11-25T05:12:23.602Z,24.97
2022-11-25T05:14:50.658Z,20.77
2022-11-25T05:17:22.529Z,34.13
2022-11-25T05:19:49.957Z,21.67
2022-11-25T05:22:19.904Z,22.20
2022-11-25T05:24:47.359Z,23.03
2022-11-25T05:27:14.054Z,20.80
2022-11-25T05:29:40.623Z,26.10
2022-11-25T05:32:07.369Z,25.77
2022-11-25T05:34:34.262Z,28.07
2022-11-25T05:37:01.135Z,29.33
2022-11-25T05:39:27.595Z,25.30
2022-11-25T05:41:54.077Z,20.43
2022-11-25T05:44:23.061Z,25.27
2022-11-25T05:46:49.890Z,27.10
2022-11-25T05:49:17.569Z,26.47
2022-11-25T05:51:44.222Z,21.50
2022-11-25T05:54:10.693Z,36.57
2022-11-25T05:56:37.336Z,22.17
2022-11-25T05:59:04.906Z,24.07
2022-11-25T06:01:32.079Z,21.20
2022-11-25T06:04:03.088Z,24.23
2022-11-25T06:06:29.848Z,20.13
2022-11-25T06:08:56.414Z,19.67
2022-11-25T06:11:23.365Z,21.30
2022-11-25T06:13:49.769Z,19.17
2022-11-25T06:16:20.675Z,17.17
2022-11-25T06:18:47.361Z,25.73
2022-11-25T06:21:14.458Z,28.07
2022-11-25T06:23:40.985Z,27.03
2022-11-25T06:26:12.362Z,23.27
2022-11-25T06:28:38.866Z,22.50
2022-11-25T06:31:13.622Z,20.30
2022-11-25T06:33:40.594Z,21.90
2022-11-25T06:36:09.916Z,22.10
2022-11-25T06:38:36.431Z,23.23
2022-11-25T06:41:04.293Z,23.40
2022-11-25T06:43:31.685Z,21.67
2022-11-25T06:46:06.449Z,19.87
2022-11-25T06:48:33.561Z,21.33
2022-11-25T06:51:01.482Z,25.57
2022-11-25T06:53:28.319Z,25.27
2022-11-25T06:56:23.387Z,21.47
2022-11-25T06:58:50.771Z,25.27
2022-11-25T07:01:26.181Z,21.37
2022-11-25T07:03:55.528Z,22.27
2022-11-25T07:06:22.712Z,18.73
2022-11-25T07:08:49.920Z,31.80
2022-11-25T07:11:19.018Z,30.37
2022-11-25T07:13:46.313Z,21.80
2022-11-25T07:16:13.626Z,18.67
2022-11-25T07:18:41.120Z,23.70
2022-11-25T07:21:13.975Z,21.97
2022-11-25T07:23:41.595Z,20.33
2022-11-25T07:26:08.080Z,23.60
2022-11-25T07:28:35.543Z,20.40
2022-11-25T07:31:32.692Z,19.80
2022-11-25T07:34:06.634Z,19.37
2022-11-25T07:36:35.074Z,17.57
2022-11-25T07:39:05.125Z,13.83
2022-11-25T07:41:32.094Z,15.97
2022-11-25T07:44:01.910Z,17.80
2022-11-25T07:46:40.353Z,20.30
2022-11-25T07:49:12.002Z,16.13
2022-11-25T07:51:53.777Z,21.47
2022-11-25T07:54:21.339Z,13.70
2022-11-25T07:56:48.759Z,15.77
2022-11-25T07:59:21.086Z,15.70
2022-11-25T08:01:54.986Z,11.63
2022-11-25T08:04:22.452Z,21.60
2022-11-25T08:06:51.644Z,16.33
2022-11-25T08:09:21.748Z,19.40
2022-11-25T08:11:49.158Z,22.60
2022-11-25T08:14:16.729Z,19.20
2022-11-25T08:16:43.432Z,17.53
2022-11-25T08:19:13.900Z,16.37
2022-11-25T08:21:41.186Z,16.47
2022-11-25T08:24:07.783Z,15.70
2022-11-25T08:26:37.733Z,18.67
2022-11-25T08:29:06.513Z,16.40
2022-11-25T08:31:36.574Z,12.80
2022-11-25T08:34:04.527Z,17.93
2022-11-25T08:36:31.736Z,15.80
2022-11-25T08:39:00.531Z,17.77
2022-11-25T08:41:30.695Z,17.00
2022-11-25T08:43:59.313Z,24.00
2022-11-25T08:46:28.459Z,14.33
2022-11-25T08:48:55.583Z,14.40
2022-11-25T08:51:25.784Z,18.73
2022-11-25T08:53:52.466Z,16.03
2022-11-25T08:56:25.668Z,18.10
2022-11-25T08:58:52.891Z,17.47
2022-11-25T09:01:20.775Z,17.80
2022-11-25T09:03:49.410Z,17.80
2022-11-25T09:06:16.432Z,12.37
2022-11-25T09:08:43.871Z,11.70
2022-11-25T09:11:11.407Z,15.60
2022-11-25T09:13:38.486Z,17.00
2022-11-25T09:16:06.068Z,16.43
2022-11-25T09:18:32.835Z,15.70
2022-11-25T09:20:59.700Z,15.37
2022-11-25T09:23:27.061Z,16.93
2022-11-25T09:25:55.793Z,18.30
2022-11-25T09:28:23.291Z,19.60
2022-11-25T09:30:50.287Z,15.13
2022-11-25T09:33:17.784Z,13.20
2022-11-25T09:35:44.498Z,13.90
2022-11-25T09:38:11.471Z,12.10
2022-11-25T09:40:56.908Z,18.50
2022-11-25T09:44:00.938Z,12.90
2022-11-25T09:46:50.085Z,16.13
2022-11-25T09:49:43.802Z,12.30
2022-11-25T09:52:25.273Z,17.47
2022-11-25T09:55:19.500Z,15.37
2022-11-25T09:58:06.150Z,17.60
2022-11-25T10:00:40.997Z,18.13
2022-11-25T10:03:17.244Z,20.40
2022-11-25T10:05:58.408Z,17.00
2022-11-25T10:08:29.814Z,20.87
2022-11-25T10:11:02.999Z,20.93
2022-11-25T10:13:41.460Z,18.73
2022-11-25T10:16:21.394Z,15.73
2022-11-25T10:18:59.427Z,19.17
2022-11-25T10:21:25.978Z,21.50
2022-11-25T10:23:52.440Z,20.77
2022-11-25T10:26:22.978Z,24.53
2022-11-25T10:29:12.967Z,23.47
2022-11-25T10:31:41.479Z,13.47
2022-11-25T10:34:33.069Z,18.03
2022-11-25T10:37:02.538Z,20.13
2022-11-25T10:39:33.837Z,21.13
2022-11-25T10:42:06.402Z,17.07
2022-11-25T10:44:35.754Z,15.97
2022-11-25T10:47:21.729Z,18.97
2022-11-25T10:50:35.030Z,19.37
2022-11-25T10:53:16.925Z,15.73
2022-11-25T10:56:09.856Z,14.20
2022-11-25T10:58:38.401Z,18.37
2022-11-25T11:01:15.616Z,18.00
2022-11-25T11:03:52.036Z,15.37
2022-11-25T11:06:43.106Z,16.97
2022-11-25T11:09:31.394Z,15.43
2022-11-25T11:12:00.560Z,18.33
2022-11-25T11:14:29.974Z,15.17
2022-11-25T11:16:57.378Z,18.93
2022-11-25T11:19:27.713Z,20.37
2022-11-25T11:21:55.366Z,21.77
2022-11-25T11:24:29.918Z,24.67
2022-11-25T11:27:17.883Z,15.20
2022-11-25T11:29:44.482Z,17.77
2022-11-25T11:32:23.991Z,21.70
2022-11-25T11:34:57.637Z,15.90
2022-11-25T11:37:26.870Z,19.50
2022-11-25T11:40:13.155Z,22.87
2022-11-25T11:43:08.210Z,18.30
2022-11-25T11:45:53.510Z,22.23
2022-11-25T11:48:38.058Z,18.47
2022-11-25T11:51:28.835Z,32.33
2022-11-25T11:54:04.042Z,13.17
2022-11-25T11:56:39.515Z,17.17
2022-11-25T11:59:27.808Z,21.00
2022-11-25T12:02:01.072Z,19.37
2022-11-25T12:04:55.611Z,18.97
2022-11-25T12:07:46.782Z,18.90
2022-11-25T12:10:16.105Z,21.40
2022-11-25T12:12:53.185Z,21.73
2022-11-25T12:15:40.114Z,17.83
2022-11-25T12:18:25.115Z,24.07
2022-11-25T12:21:02.622Z,16.17
2022-11-25T12:23:58.414Z,21.00
2022-11-25T12:26:35.154Z,24.23
2022-11-25T12:29:08.340Z,16.97
2022-11-25T12:31:42.037Z,22.73
2022-11-25T12:34:27.652Z,27.83
2022-11-25T12:37:04.141Z,20.47
2022-11-25T12:39:57.119Z,27.23
2022-11-25T12:42:26.346Z,25.37
2022-11-25T12:45:21.963Z,15.83
2022-11-25T12:47:48.758Z,16.63
2022-11-25T12:50:44.556Z,15.83
2022-11-25T12:53:29.524Z,21.40
2022-11-25T12:56:01.606Z,17.23
2022-11-25T12:58:28.060Z,17.40
2022-11-25T13:01:15.432Z,15.87
2022-11-25T13:04:05.829Z,18.47
2022-11-25T13:07:03.009Z,17.83
2022-11-25T13:10:16.951Z,22.53
2022-11-25T13:12:57.943Z,14.83
2022-11-25T13:15:31.074Z,16.00
2022-11-25T13:18:03.167Z,17.00
2022-11-25T13:20:29.583Z,20.93
2022-11-25T13:23:04.930Z,18.57
2022-11-25T13:25:32.991Z,17.93
2022-11-25T13:28:01.956Z,14.37
2022-11-25T13:30:34.245Z,16.93
2022-11-25T13:33:09.875Z,14.57
2022-11-25T13:35:39.880Z,21.63
2022-11-25T13:38:39.108Z,14.87
2022-11-25T13:41:11.678Z,18.70
2022-11-25T13:44:05.446Z,19.63
2022-11-25T13:46:53.227Z,21.87
2022-11-25T13:49:27.719Z,14.07
2022-11-25T13:51:58.193Z,11.37
2022-11-25T13:54:33.613Z,18.30
2022-11-25T13:57:31.066Z,18.13
2022-11-25T14:00:00.715Z,18.47
2022-11-25T14:02:27.225Z,14.17
2022-11-25T14:05:23.055Z,16.30
2022-11-25T14:08:07.984Z,21.17
2022-11-25T14:10:45.776Z,20.00
2022-11-25T14:13:49.639Z,16.93
2022-11-25T14:16:35.127Z,20.43
2022-11-25T14:19:55.292Z,15.43
2022-11-25T14:22:27.649Z,20.07
2022-11-25T14:25:14.832Z,17.53
2022-11-25T14:27:48.084Z,17.47
2022-11-25T14:30:15.465Z,19.20
2022-11-25T14:32:57.658Z,23.97
2022-11-25T14:35:45.100Z,19.00
2022-11-25T14:38:28.218Z,22.80
2022-11-25T14:41:05.110Z,13.13
2022-11-25T14:43:39.952Z,23.47
2022-11-25T14:46:10.947Z,19.70
2022-11-25T14:48:37.965Z,21.50
2022-11-25T14:51:07.444Z,22.07
2022-11-25T14:53:46.014Z,16.93
2022-11-25T14:56:17.105Z,19.10
2022-11-25T14:58:49.429Z,18.93
2022-11-25T15:01:25.495Z,19.03
2022-11-25T15:04:18.476Z,19.30
2022-11-25T15:06:54.045Z,19.07
2022-11-25T15:09:32.609Z,23.37
2022-11-25T15:12:01.979Z,21.80
2022-11-25T15:14:38.809Z,18.50
2022-11-25T15:17:10.211Z,20.70
2022-11-25T15:19:37.803Z,17.77
2022-11-25T15:22:22.337Z,18.67
2022-11-25T15:24:55.500Z,25.40
2022-11-25T15:27:26.616Z,21.07
2022-11-25T15:29:55.533Z,20.43
2022-11-25T15:32:25.860Z,18.33
2022-11-25T15:34:54.335Z,17.63
2022-11-25T15:37:20.953Z,27.93
2022-11-25T15:39:47.666Z,21.87
2022-11-25T15:42:21.920Z,22.23
2022-11-25T15:45:08.998Z,16.93
2022-11-25T15:47:36.043Z,20.40
2022-11-25T15:50:17.657Z,19.77
2022-11-25T15:52:48.679Z,27.40
2022-11-25T15:55:24.574Z,15.90
2022-11-25T15:57:53.564Z,20.13
2022-11-25T16:00:24.957Z,22.13
2022-11-25T16:02:54.566Z,26.60
2022-11-25T16:05:27.302Z,21.00
2022-11-25T16:07:53.736Z,19.17
2022-11-25T16:10:23.421Z,20.87
2022-11-25T16:13:33.427Z,20.80
2022-11-25T16:16:15.055Z,20.87
2022-11-25T16:18:52.032Z,20.03
2022-11-25T16:21:22.466Z,28.43
2022-11-25T16:23:52.611Z,28.07
2022-11-25T16:26:32.416Z,24.43
2022-11-25T16:29:02.837Z,22.23
2022-11-25T16:31:29.368Z,32.37
2022-11-25T16:34:15.708Z,28.53
2022-11-25T16:36:42.413Z,21.77
2022-11-25T16:39:09.592Z,25.17
2022-11-25T16:41:37.573Z,25.20
2022-11-25T16:44:24.410Z,25.87
2022-11-25T16:46:51.263Z,25.77
2022-11-25T16:49:19.986Z,33.23
2022-11-25T16:51:46.570Z,21.87
2022-11-25T16:54:13.036Z,30.53
2022-11-25T16:56:41.823Z,25.73
2022-11-25T16:59:22.079Z,23.23
2022-11-25T17:01:48.964Z,30.17
2022-11-25T17:04:17.018Z,24.63
2022-11-25T17:06:50.571Z,23.30
2022-11-25T17:09:30.300Z,30.03
2022-11-25T17:11:57.750Z,22.57
2022-11-25T17:14:29.209Z,26.77
2022-11-25T17:16:55.957Z,22.00
2022-11-25T17:19:22.558Z,25.17
2022-11-25T17:21:49.065Z,30.30
2022-11-25T17:24:21.789Z,27.93
2022-11-25T17:26:53.606Z,25.37
2022-11-25T17:29:26.263Z,24.47
2022-11-25T17:31:58.232Z,27.17
2022-11-25T17:34:25.238Z,26.90
2022-11-25T17:36:52.296Z,23.93
2022-11-25T17:39:18.829Z,24.67
2022-11-25T17:41:48.294Z,21.70
2022-11-25T17:44:28.530Z,36.93
2022-11-25T17:46:57.105Z,30.33
2022-11-25T17:49:23.778Z,29.27
2022-11-25T17:51:50.385Z,35.00
2022-11-25T17:54:17.300Z,27.33
2022-11-25T17:56:51.855Z,34.37
2022-11-25T17:59:39.271Z,37.10
2022-11-25T18:02:19.825Z,32.17
2022-11-25T18:04:46.854Z,35.73
2022-11-25T18:07:13.525Z,38.07
2022-11-25T18:09:40.542Z,36.33
2022-11-25T18:12:12.703Z,37.30
2022-11-25T18:14:42.823Z,30.47
2022-11-25T18:17:13.954Z,29.73
2022-11-25T18:19:40.404Z,35.27
2022-11-25T18:22:15.933Z,31.63
2022-11-25T18:24:42.899Z,31.17
2022-11-25T18:27:19.887Z,27.70
2022-11-25T18:29:46.711Z,36.40
2022-11-25T18:32:13.347Z,35.13
2022-11-25T18:34:39.986Z,34.50
2022-11-25T18:37:06.657Z,33.73
2022-11-25T18:39:33.127Z,57.27
2022-11-25T18:42:00.155Z,31.00
2022-11-25T18:44:29.105Z,34.13
2022-11-25T18:46:55.775Z,34.10
2022-11-25T18:49:23.728Z,35.03
2022-11-25T18:51:50.244Z,35.70
2022-11-25T18:54:16.665Z,30.20
2022-11-25T18:56:45.203Z,28.93
2022-11-25T18:59:17.376Z,31.30
2022-11-25T19:01:49.403Z,33.00
2022-11-25T19:04:16.745Z,40.20
2022-11-25T19:06:43.939Z,42.60
2022-11-25T19:09:10.447Z,36.77
2022-11-25T19:11:41.675Z,31.47
2022-11-25T19:14:19.098Z,32.60
2022-11-25T19:16:46.266Z,44.23
2022-11-25T19:19:16.984Z,34.37
2022-11-25T19:21:43.698Z,41.03
2022-11-25T19:24:16.435Z,39.93
2022-11-25T19:26:51.338Z,47.57
2022-11-25T19:29:20.999Z,39.23
2022-11-25T19:31:49.627Z,49.53
2022-11-25T19:34:43.845Z,58.77
2022-11-25T19:37:17.040Z,38.80
2022-11-25T19:39:51.063Z,39.80
2022-11-25T19:42:17.685Z,39.90
2022-11-25T19:44:45.697Z,37.90
2022-11-25T19:47:20.740Z,38.50
2022-11-25T19:49:48.092Z,39.73
2022-11-25T19:52:21.358Z,39.13
2022-11-25T19:54:48.182Z,39.97
2022-11-25T19:57:20.522Z,46.20
2022-11-25T19:59:47.593Z,36.90
2022-11-25T20:02:20.809Z,45.27
2022-11-25T20:04:49.635Z,41.03
2022-11-25T20:07:19.401Z,35.63
2022-11-25T20:09:46.320Z,36.73
2022-11-25T20:12:24.068Z,41.97
2022-11-25T20:14:51.453Z,37.03
2022-11-25T20:17:28.054Z,41.97
2022-11-25T20:19:57.190Z,41.07
2022-11-25T20:22:31.200Z,45.97
2022-11-25T20:25:00.250Z,41.03
2022-11-25T20:27:28.069Z,36.40
2022-11-25T20:29:55.210Z,37.53
2022-11-25T20:32:31.035Z,38.80
2022-11-25T20:34:58.671Z,37.60
2022-11-25T20:37:27.991Z,44.93
2022-11-25T20:39:58.505Z,39.10
2022-11-25T20:42:25.409Z,36.80
2022-11-25T20:44:56.040Z,37.70
2022-11-25T20:47:26.184Z,39.63
2022-11-25T20:49:53.767Z,42.10
2022-11-25T20:52:30.095Z,34.20
2022-11-25T20:54:57.646Z,35.53
2022-11-25T20:57:24.619Z,39.73
2022-11-25T20:59:51.252Z,40.73
2022-11-25T21:02:17.758Z,33.80
2022-11-25T21:04:44.198Z,35.40
2022-11-25T21:07:15.367Z,36.00
2022-11-25T21:09:42.342Z,31.60
2022-11-25T21:12:19.276Z,40.30
2022-11-25T21:14:47.181Z,34.83
2022-11-25T21:17:13.637Z,35.37
2022-11-25T21:19:40.059Z,30.07
2022-11-25T21:22:06.613Z,37.40
2022-11-25T21:24:38.556Z,33.33
2022-11-25T21:27:14.563Z,31.97
2022-11-25T21:29:43.250Z,34.97
2022-11-25T21:32:21.650Z,36.27
2022-11-25T21:34:48.472Z,32.37
2022-11-25T21:37:16.019Z,35.03
2022-11-25T21:39:42.772Z,27.47
2022-11-25T21:42:18.340Z,31.00
2022-11-25T21:44:46.008Z,30.10
2022-11-25T21:47:20.286Z,30.00
2022-11-25T21:49:47.214Z,42.73
2022-11-25T21:52:14.017Z,33.87
2022-11-25T21:54:40.901Z,26.87
2022-11-25T21:57:15.495Z,28.57
2022-11-25T21:59:42.241Z,31.33
2022-11-25T22:02:20.765Z,32.20
2022-11-25T22:04:47.508Z,33.50
2022-11-25T22:07:14.599Z,33.23
2022-11-25T22:09:41.456Z,27.23
2022-11-25T22:12:26.839Z,27.93
2022-11-25T22:14:53.621Z,29.47
2022-11-25T22:17:20.347Z,20.87
2022-11-25T22:19:47.067Z,28.37
2022-11-25T22:22:15.003Z,25.87
2022-11-25T22:24:41.800Z,30.73
2022-11-25T22:27:23.097Z,24.97
2022-11-25T22:29:49.946Z,27.83
2022-11-25T22:32:17.778Z,30.10
2022-11-25T22:34:44.554Z,30.80
2022-11-25T22:37:19.985Z,24.10
2022-11-25T22:39:46.487Z,33.17
2022-11-25T22:42:24.518Z,25.73
2022-11-25T22:44:51.334Z,34.13
2022-11-25T22:47:25.238Z,40.27
2022-11-25T22:49:52.842Z,24.57
2022-11-25T22:52:25.184Z,26.27
2022-11-25T22:54:52.024Z,26.67
2022-11-25T22:57:18.961Z,30.53
2022-11-25T22:59:45.402Z,31.80
2022-11-25T23:02:19.703Z,28.60
2022-11-25T23:04:51.815Z,25.37
2022-11-25T23:07:20.023Z,32.27
2022-11-25T23:09:46.747Z,27.13
2022-11-25T23:12:14.781Z,31.87
2022-11-25T23:14:42.011Z,30.87
2022-11-25T23:17:31.590Z,28.73
2022-11-25T23:19:58.158Z,31.63
2022-11-25T23:22:24.647Z,30.60
2022-11-25T23:24:51.118Z,31.77
2022-11-25T23:27:17.628Z,26.93
2022-11-25T23:29:45.181Z,38.33
2022-11-25T23:32:19.960Z,34.73
2022-11-25T23:34:49.933Z,41.70
2022-11-25T23:37:16.577Z,28.27
2022-11-25T23:39:48.103Z,33.93
2022-11-25T23:42:18.801Z,31.00
2022-11-25T23:44:45.481Z,26.87
2022-11-25T23:47:17.327Z,30.67
2022-11-25T23:49:49.765Z,24.40
2022-11-25T23:52:22.673Z,33.57
2022-11-25T23:54:50.677Z,27.17
2022-11-25T23:57:24.102Z,22.60
2022-11-25T23:59:51.614Z,33.70
